Terminal Aerodrome Forecast
Issued by NWS Northern Indiana

Home | Current Version | Previous Version | Text Only | Print | Product List | Glossary Off
Versions: 1 2 3 4 5 6 7 8 9 10 11 12

000
FTUS43 KIWX 311135
TAFFWA
TAF
KFWA 311135Z 3112/0112 00000KT 5SM BR SCT006
      TEMPO 3112/3114 2SM BR BKN006
     FM311400 VRB03KT 4SM BR BKN015
     FM311500 23003KT P6SM BKN025
     FM311700 23006KT P6SM SCT035
     FM010700 23003KT 4SM BR SCT050=

USA.gov is the U.S. government's official web portal to all federal, state and local government web resources and services.